sensor_id;sensor_type;location;lat;lon;timestamp;temperature;humidity
31133;DHT22;17779;50.942;4.026;2023-07-31T00:00:34;17.80;99.90
31133;DHT22;17779;50.942;4.026;2023-07-31T00:03:00;17.80;99.90
31133;DHT22;17779;50.942;4.026;2023-07-31T00:05:26;17.80;99.90
31133;DHT22;17779;50.942;4.026;2023-07-31T00:07:51;17.90;99.90
31133;DHT22;17779;50.942;4.026;2023-07-31T00:10:17;17.90;99.90
31133;DHT22;17779;50.942;4.026;2023-07-31T00:12:43;17.80;99.90
31133;DHT22;17779;50.942;4.026;2023-07-31T00:15:09;17.90;99.90
31133;DHT22;17779;50.942;4.026;2023-07-31T00:17:35;17.80;99.90
31133;DHT22;17779;50.942;4.026;2023-07-31T00:20:01;17.80;99.90
31133;DHT22;17779;50.942;4.026;2023-07-31T00:22:27;17.90;99.90
31133;DHT22;17779;50.942;4.026;2023-07-31T00:24:52;17.90;99.90
31133;DHT22;17779;50.942;4.026;2023-07-31T00:27:18;17.90;99.90
31133;DHT22;17779;50.942;4.026;2023-07-31T00:29:43;18.00;99.90
31133;DHT22;17779;50.942;4.026;2023-07-31T00:32:09;18.10;99.90
31133;DHT22;17779;50.942;4.026;2023-07-31T00:34:34;18.00;99.90
31133;DHT22;17779;50.942;4.026;2023-07-31T00:37:00;18.00;99.90
31133;DHT22;17779;50.942;4.026;2023-07-31T00:39:26;18.00;99.90
31133;DHT22;17779;50.942;4.026;2023-07-31T00:41:51;18.00;99.90
31133;DHT22;17779;50.942;4.026;2023-07-31T00:44:17;18.00;99.90
31133;DHT22;17779;50.942;4.026;2023-07-31T00:46:42;18.00;99.90
31133;DHT22;17779;50.942;4.026;2023-07-31T00:49:08;18.20;99.90
31133;DHT22;17779;50.942;4.026;2023-07-31T00:51:34;18.30;99.90
31133;DHT22;17779;50.942;4.026;2023-07-31T00:54:00;18.30;99.90
31133;DHT22;17779;50.942;4.026;2023-07-31T00:56:25;18.20;99.90
31133;DHT22;17779;50.942;4.026;2023-07-31T00:58:51;18.10;99.90
31133;DHT22;17779;50.942;4.026;2023-07-31T01:01:17;18.10;99.90
31133;DHT22;17779;50.942;4.026;2023-07-31T01:03:42;18.10;99.90
31133;DHT22;17779;50.942;4.026;2023-07-31T01:06:13;18.10;99.90
31133;DHT22;17779;50.942;4.026;2023-07-31T01:11:43;18.10;99.90
31133;DHT22;17779;50.942;4.026;2023-07-31T01:14:03;18.20;99.90
31133;DHT22;17779;50.942;4.026;2023-07-31T01:16:29;18.20;99.90
31133;DHT22;17779;50.942;4.026;2023-07-31T01:18:55;18.20;99.90
31133;DHT22;17779;50.942;4.026;2023-07-31T01:24:08;18.40;99.90
31133;DHT22;17779;50.942;4.026;2023-07-31T01:26:36;18.50;99.90
31133;DHT22;17779;50.942;4.026;2023-07-31T01:29:07;18.60;99.90
31133;DHT22;17779;50.942;4.026;2023-07-31T01:31:35;18.50;99.90
31133;DHT22;17779;50.942;4.026;2023-07-31T01:34:02;18.40;99.90
31133;DHT22;17779;50.942;4.026;2023-07-31T01:36:28;18.30;99.90
31133;DHT22;17779;50.942;4.026;2023-07-31T01:38:57;18.30;99.90
31133;DHT22;17779;50.942;4.026;2023-07-31T01:41:24;18.40;99.90
31133;DHT22;17779;50.942;4.026;2023-07-31T01:43:50;18.30;99.90
31133;DHT22;17779;50.942;4.026;2023-07-31T01:46:15;18.40;99.90
31133;DHT22;17779;50.942;4.026;2023-07-31T01:48:41;18.40;99.90
31133;DHT22;17779;50.942;4.026;2023-07-31T01:51:06;18.30;99.90
31133;DHT22;17779;50.942;4.026;2023-07-31T01:53:32;18.40;99.90
31133;DHT22;17779;50.942;4.026;2023-07-31T01:55:57;18.30;99.90
31133;DHT22;17779;50.942;4.026;2023-07-31T01:58:23;18.40;99.90
31133;DHT22;17779;50.942;4.026;2023-07-31T02:00:49;18.30;99.90
31133;DHT22;17779;50.942;4.026;2023-07-31T02:03:14;18.20;99.90
31133;DHT22;17779;50.942;4.026;2023-07-31T02:05:49;18.30;99.90
31133;DHT22;17779;50.942;4.026;2023-07-31T02:08:15;18.30;99.90
31133;DHT22;17779;50.942;4.026;2023-07-31T02:10:41;18.40;99.90
31133;DHT22;17779;50.942;4.026;2023-07-31T02:13:07;18.50;99.90
31133;DHT22;17779;50.942;4.026;2023-07-31T02:15:32;18.50;99.90
31133;DHT22;17779;50.942;4.026;2023-07-31T02:17:58;18.40;99.90
31133;DHT22;17779;50.942;4.026;2023-07-31T02:20:24;18.40;99.90
31133;DHT22;17779;50.942;4.026;2023-07-31T02:22:49;18.30;99.90
31133;DHT22;17779;50.942;4.026;2023-07-31T02:25:15;18.30;99.90
31133;DHT22;17779;50.942;4.026;2023-07-31T02:27:40;18.40;99.90
31133;DHT22;17779;50.942;4.026;2023-07-31T02:30:06;18.40;99.90
31133;DHT22;17779;50.942;4.026;2023-07-31T02:32:32;18.40;99.90
31133;DHT22;17779;50.942;4.026;2023-07-31T02:34:58;18.50;99.90
31133;DHT22;17779;50.942;4.026;2023-07-31T02:37:23;18.40;99.90
31133;DHT22;17779;50.942;4.026;2023-07-31T02:39:49;18.40;99.90
31133;DHT22;17779;50.942;4.026;2023-07-31T02:42:15;18.30;99.90
31133;DHT22;17779;50.942;4.026;2023-07-31T02:44:40;18.30;99.90
31133;DHT22;17779;50.942;4.026;2023-07-31T02:47:06;18.40;99.90
31133;DHT22;17779;50.942;4.026;2023-07-31T02:49:32;18.30;99.90
31133;DHT22;17779;50.942;4.026;2023-07-31T02:51:57;18.30;99.90
31133;DHT22;17779;50.942;4.026;2023-07-31T02:54:25;18.20;99.90
31133;DHT22;17779;50.942;4.026;2023-07-31T02:56:50;18.10;99.90
31133;DHT22;17779;50.942;4.026;2023-07-31T02:59:16;18.00;99.90
31133;DHT22;17779;50.942;4.026;2023-07-31T03:01:48;18.10;99.90
31133;DHT22;17779;50.942;4.026;2023-07-31T03:04:13;18.20;99.90
31133;DHT22;17779;50.942;4.026;2023-07-31T03:06:39;18.20;99.90
31133;DHT22;17779;50.942;4.026;2023-07-31T03:09:04;18.10;99.90
31133;DHT22;17779;50.942;4.026;2023-07-31T03:11:30;18.20;99.90
31133;DHT22;17779;50.942;4.026;2023-07-31T03:13:56;18.20;99.90
31133;DHT22;17779;50.942;4.026;2023-07-31T03:16:21;18.30;99.90
31133;DHT22;17779;50.942;4.026;2023-07-31T03:18:47;18.40;99.90
31133;DHT22;17779;50.942;4.026;2023-07-31T03:21:13;18.40;99.90
31133;DHT22;17779;50.942;4.026;2023-07-31T03:23:39;18.30;99.90
31133;DHT22;17779;50.942;4.026;2023-07-31T03:26:06;18.20;99.90
31133;DHT22;17779;50.942;4.026;2023-07-31T03:28:31;18.10;99.90
31133;DHT22;17779;50.942;4.026;2023-07-31T03:30:57;18.10;99.90
31133;DHT22;17779;50.942;4.026;2023-07-31T03:33:22;18.10;99.90
31133;DHT22;17779;50.942;4.026;2023-07-31T03:35:48;18.10;99.90
31133;DHT22;17779;50.942;4.026;2023-07-31T03:38:14;18.00;99.90
31133;DHT22;17779;50.942;4.026;2023-07-31T03:40:40;17.90;99.90
31133;DHT22;17779;50.942;4.026;2023-07-31T03:43:05;17.90;99.90
31133;DHT22;17779;50.942;4.026;2023-07-31T03:45:31;17.80;99.90
31133;DHT22;17779;50.942;4.026;2023-07-31T03:47:57;17.70;99.90
31133;DHT22;17779;50.942;4.026;2023-07-31T03:50:22;17.70;99.90
31133;DHT22;17779;50.942;4.026;2023-07-31T03:52:48;17.70;99.90
31133;DHT22;17779;50.942;4.026;2023-07-31T03:55:13;17.80;99.90
31133;DHT22;17779;50.942;4.026;2023-07-31T03:57:39;17.80;99.90
31133;DHT22;17779;50.942;4.026;2023-07-31T04:00:05;17.80;99.90
31133;DHT22;17779;50.942;4.026;2023-07-31T04:02:31;17.70;99.90
31133;DHT22;17779;50.942;4.026;2023-07-31T04:04:56;17.60;99.90
31133;DHT22;17779;50.942;4.026;2023-07-31T04:07:22;17.60;99.90
31133;DHT22;17779;50.942;4.026;2023-07-31T04:09:47;17.50;99.90
31133;DHT22;17779;50.942;4.026;2023-07-31T04:12:13;17.50;99.90
31133;DHT22;17779;50.942;4.026;2023-07-31T04:14:39;17.50;99.90
31133;DHT22;17779;50.942;4.026;2023-07-31T04:17:04;17.50;99.90
31133;DHT22;17779;50.942;4.026;2023-07-31T04:19:30;17.50;99.90
31133;DHT22;17779;50.942;4.026;2023-07-31T04:21:55;17.50;99.90
31133;DHT22;17779;50.942;4.026;2023-07-31T04:24:21;17.60;99.90
31133;DHT22;17779;50.942;4.026;2023-07-31T04:26:50;17.60;99.90
31133;DHT22;17779;50.942;4.026;2023-07-31T04:29:15;17.70;99.90
31133;DHT22;17779;50.942;4.026;2023-07-31T04:31:41;17.60;99.90
31133;DHT22;17779;50.942;4.026;2023-07-31T04:34:07;17.60;99.90
31133;DHT22;17779;50.942;4.026;2023-07-31T04:36:33;17.50;99.90
31133;DHT22;17779;50.942;4.026;2023-07-31T04:38:58;17.50;99.90
31133;DHT22;17779;50.942;4.026;2023-07-31T04:41:24;17.50;99.90
31133;DHT22;17779;50.942;4.026;2023-07-31T04:43:49;17.50;99.90
31133;DHT22;17779;50.942;4.026;2023-07-31T04:46:15;17.60;99.90
31133;DHT22;17779;50.942;4.026;2023-07-31T04:48:41;17.50;99.90
31133;DHT22;17779;50.942;4.026;2023-07-31T04:51:06;17.60;99.90
31133;DHT22;17779;50.942;4.026;2023-07-31T04:53:32;17.40;99.90
31133;DHT22;17779;50.942;4.026;2023-07-31T04:55:58;17.40;99.90
31133;DHT22;17779;50.942;4.026;2023-07-31T04:58:23;17.40;99.90
31133;DHT22;17779;50.942;4.026;2023-07-31T05:00:49;17.40;99.90
31133;DHT22;17779;50.942;4.026;2023-07-31T05:03:14;17.40;99.90
31133;DHT22;17779;50.942;4.026;2023-07-31T05:05:40;17.40;99.90
31133;DHT22;17779;50.942;4.026;2023-07-31T05:08:05;17.40;99.90
31133;DHT22;17779;50.942;4.026;2023-07-31T05:10:31;17.30;99.90
31133;DHT22;17779;50.942;4.026;2023-07-31T05:12:57;17.40;99.90
31133;DHT22;17779;50.942;4.026;2023-07-31T05:15:22;17.40;99.90
31133;DHT22;17779;50.942;4.026;2023-07-31T05:17:48;17.30;99.90
31133;DHT22;17779;50.942;4.026;2023-07-31T05:20:14;17.30;99.90
31133;DHT22;17779;50.942;4.026;2023-07-31T05:22:40;17.30;99.90
31133;DHT22;17779;50.942;4.026;2023-07-31T05:25:05;17.30;99.90
31133;DHT22;17779;50.942;4.026;2023-07-31T05:27:31;17.40;99.90
31133;DHT22;17779;50.942;4.026;2023-07-31T05:29:57;17.30;99.90
31133;DHT22;17779;50.942;4.026;2023-07-31T05:32:23;17.30;99.90
31133;DHT22;17779;50.942;4.026;2023-07-31T05:34:52;17.20;99.90
31133;DHT22;17779;50.942;4.026;2023-07-31T05:37:18;17.30;99.90
31133;DHT22;17779;50.942;4.026;2023-07-31T05:39:43;17.30;99.90
31133;DHT22;17779;50.942;4.026;2023-07-31T05:42:09;17.30;99.90
31133;DHT22;17779;50.942;4.026;2023-07-31T05:44:34;17.30;99.90
31133;DHT22;17779;50.942;4.026;2023-07-31T05:47:00;17.40;99.90
31133;DHT22;17779;50.942;4.026;2023-07-31T05:49:26;17.40;99.90
31133;DHT22;17779;50.942;4.026;2023-07-31T05:51:51;17.30;99.90
31133;DHT22;17779;50.942;4.026;2023-07-31T05:54:17;17.40;99.90
31133;DHT22;17779;50.942;4.026;2023-07-31T05:56:43;17.40;99.90
31133;DHT22;17779;50.942;4.026;2023-07-31T05:59:09;17.40;99.90
31133;DHT22;17779;50.942;4.026;2023-07-31T06:01:35;17.40;99.90
31133;DHT22;17779;50.942;4.026;2023-07-31T06:04:00;17.50;99.90
31133;DHT22;17779;50.942;4.026;2023-07-31T06:06:28;17.40;99.90
31133;DHT22;17779;50.942;4.026;2023-07-31T06:08:53;17.40;99.90
31133;DHT22;17779;50.942;4.026;2023-07-31T06:11:19;17.50;99.90
31133;DHT22;17779;50.942;4.026;2023-07-31T06:13:45;17.40;99.90
31133;DHT22;17779;50.942;4.026;2023-07-31T06:16:13;17.60;99.90
31133;DHT22;17779;50.942;4.026;2023-07-31T06:18:39;17.60;99.90
31133;DHT22;17779;50.942;4.026;2023-07-31T06:21:05;17.60;99.90
31133;DHT22;17779;50.942;4.026;2023-07-31T06:23:30;17.80;99.90
31133;DHT22;17779;50.942;4.026;2023-07-31T06:25:56;17.90;99.90
31133;DHT22;17779;50.942;4.026;2023-07-31T06:28:26;17.90;99.90
31133;DHT22;17779;50.942;4.026;2023-07-31T06:30:52;17.80;99.90
31133;DHT22;17779;50.942;4.026;2023-07-31T06:33:18;17.90;99.90
31133;DHT22;17779;50.942;4.026;2023-07-31T06:35:43;17.90;99.90
31133;DHT22;17779;50.942;4.026;2023-07-31T06:38:10;17.90;99.90
31133;DHT22;17779;50.942;4.026;2023-07-31T06:40:36;18.00;99.90
31133;DHT22;17779;50.942;4.026;2023-07-31T06:43:02;18.10;99.90
31133;DHT22;17779;50.942;4.026;2023-07-31T06:45:36;18.40;99.90
31133;DHT22;17779;50.942;4.026;2023-07-31T06:48:03;18.20;99.90
31133;DHT22;17779;50.942;4.026;2023-07-31T06:50:32;18.30;99.90
31133;DHT22;17779;50.942;4.026;2023-07-31T06:52:58;18.60;99.90
31133;DHT22;17779;50.942;4.026;2023-07-31T06:55:24;18.60;99.90
31133;DHT22;17779;50.942;4.026;2023-07-31T06:57:50;18.70;99.90
31133;DHT22;17779;50.942;4.026;2023-07-31T07:00:17;18.70;99.90
31133;DHT22;17779;50.942;4.026;2023-07-31T07:02:42;18.70;99.90
31133;DHT22;17779;50.942;4.026;2023-07-31T07:05:08;18.70;99.90
31133;DHT22;17779;50.942;4.026;2023-07-31T07:07:34;18.70;99.90
31133;DHT22;17779;50.942;4.026;2023-07-31T07:10:00;18.70;99.90
31133;DHT22;17779;50.942;4.026;2023-07-31T07:12:27;18.60;99.90
31133;DHT22;17779;50.942;4.026;2023-07-31T07:14:52;18.50;99.90
31133;DHT22;17779;50.942;4.026;2023-07-31T07:17:18;18.40;99.90
31133;DHT22;17779;50.942;4.026;2023-07-31T07:19:44;18.40;99.90
31133;DHT22;17779;50.942;4.026;2023-07-31T07:22:11;18.40;99.90
31133;DHT22;17779;50.942;4.026;2023-07-31T07:24:37;18.40;99.90
31133;DHT22;17779;50.942;4.026;2023-07-31T07:27:02;18.40;99.90
31133;DHT22;17779;50.942;4.026;2023-07-31T07:29:28;18.40;99.90
31133;DHT22;17779;50.942;4.026;2023-07-31T07:31:54;18.50;99.90
31133;DHT22;17779;50.942;4.026;2023-07-31T07:34:22;18.50;99.90
31133;DHT22;17779;50.942;4.026;2023-07-31T07:36:48;18.70;99.90
31133;DHT22;17779;50.942;4.026;2023-07-31T07:39:14;18.90;99.90
31133;DHT22;17779;50.942;4.026;2023-07-31T07:41:39;18.80;99.90
31133;DHT22;17779;50.942;4.026;2023-07-31T07:44:05;18.90;99.90
31133;DHT22;17779;50.942;4.026;2023-07-31T07:46:31;19.30;99.90
31133;DHT22;17779;50.942;4.026;2023-07-31T07:48:56;19.70;99.90
31133;DHT22;17779;50.942;4.026;2023-07-31T07:51:22;19.80;99.90
31133;DHT22;17779;50.942;4.026;2023-07-31T07:53:48;19.80;99.90
31133;DHT22;17779;50.942;4.026;2023-07-31T07:56:13;19.70;99.90
31133;DHT22;17779;50.942;4.026;2023-07-31T07:58:39;19.90;99.90
31133;DHT22;17779;50.942;4.026;2023-07-31T08:01:04;20.00;99.90
31133;DHT22;17779;50.942;4.026;2023-07-31T08:03:30;20.00;99.90
31133;DHT22;17779;50.942;4.026;2023-07-31T08:05:59;19.70;99.90
31133;DHT22;17779;50.942;4.026;2023-07-31T08:08:25;19.40;99.90
31133;DHT22;17779;50.942;4.026;2023-07-31T08:10:51;19.10;99.90
31133;DHT22;17779;50.942;4.026;2023-07-31T08:13:16;19.10;99.90
31133;DHT22;17779;50.942;4.026;2023-07-31T08:15:42;19.30;99.90
31133;DHT22;17779;50.942;4.026;2023-07-31T08:18:08;19.30;99.90
31133;DHT22;17779;50.942;4.026;2023-07-31T08:20:34;19.40;99.90
31133;DHT22;17779;50.942;4.026;2023-07-31T08:22:59;19.40;99.90
31133;DHT22;17779;50.942;4.026;2023-07-31T08:25:25;19.60;99.90
31133;DHT22;17779;50.942;4.026;2023-07-31T08:27:51;19.60;99.90
31133;DHT22;17779;50.942;4.026;2023-07-31T08:30:18;19.70;99.90
31133;DHT22;17779;50.942;4.026;2023-07-31T08:32:44;19.80;99.90
31133;DHT22;17779;50.942;4.026;2023-07-31T08:35:10;19.90;99.90
31133;DHT22;17779;50.942;4.026;2023-07-31T08:37:35;19.80;99.90
31133;DHT22;17779;50.942;4.026;2023-07-31T08:40:01;19.60;99.90
31133;DHT22;17779;50.942;4.026;2023-07-31T08:42:27;19.60;99.90
31133;DHT22;17779;50.942;4.026;2023-07-31T08:44:53;19.80;99.90
31133;DHT22;17779;50.942;4.026;2023-07-31T08:47:20;19.60;99.90
31133;DHT22;17779;50.942;4.026;2023-07-31T08:49:46;19.70;99.90
31133;DHT22;17779;50.942;4.026;2023-07-31T08:52:12;19.80;99.90
31133;DHT22;17779;50.942;4.026;2023-07-31T08:54:38;19.90;99.90
31133;DHT22;17779;50.942;4.026;2023-07-31T08:57:04;19.90;99.90
31133;DHT22;17779;50.942;4.026;2023-07-31T08:59:30;19.90;99.90
31133;DHT22;17779;50.942;4.026;2023-07-31T09:01:57;20.30;99.90
31133;DHT22;17779;50.942;4.026;2023-07-31T09:04:24;20.40;99.90
31133;DHT22;17779;50.942;4.026;2023-07-31T09:06:50;20.60;99.90
31133;DHT22;17779;50.942;4.026;2023-07-31T09:09:19;20.80;99.90
31133;DHT22;17779;50.942;4.026;2023-07-31T09:11:45;20.60;99.90
31133;DHT22;17779;50.942;4.026;2023-07-31T09:14:11;20.60;99.90
31133;DHT22;17779;50.942;4.026;2023-07-31T09:16:50;20.70;99.90
31133;DHT22;17779;50.942;4.026;2023-07-31T09:19:22;20.80;99.90
31133;DHT22;17779;50.942;4.026;2023-07-31T09:21:50;20.40;99.90
31133;DHT22;17779;50.942;4.026;2023-07-31T09:24:28;20.20;99.90
31133;DHT22;17779;50.942;4.026;2023-07-31T09:26:55;19.90;99.90
31133;DHT22;17779;50.942;4.026;2023-07-31T09:29:22;19.70;99.90
31133;DHT22;17779;50.942;4.026;2023-07-31T09:31:48;19.60;99.90
31133;DHT22;17779;50.942;4.026;2023-07-31T09:34:13;19.80;99.90
31133;DHT22;17779;50.942;4.026;2023-07-31T09:36:42;19.60;99.90
31133;DHT22;17779;50.942;4.026;2023-07-31T09:39:09;19.60;99.90
31133;DHT22;17779;50.942;4.026;2023-07-31T09:41:37;19.60;99.90
31133;DHT22;17779;50.942;4.026;2023-07-31T09:44:04;19.40;99.90
31133;DHT22;17779;50.942;4.026;2023-07-31T09:46:30;19.40;99.90
31133;DHT22;17779;50.942;4.026;2023-07-31T09:49:08;19.20;99.90
31133;DHT22;17779;50.942;4.026;2023-07-31T09:51:35;19.20;99.90
31133;DHT22;17779;50.942;4.026;2023-07-31T09:54:08;19.10;99.90
31133;DHT22;17779;50.942;4.026;2023-07-31T09:56:34;19.10;99.90
31133;DHT22;17779;50.942;4.026;2023-07-31T09:59:00;19.30;99.90
31133;DHT22;17779;50.942;4.026;2023-07-31T10:01:27;19.30;99.90
31133;DHT22;17779;50.942;4.026;2023-07-31T10:03:53;19.20;99.90
31133;DHT22;17779;50.942;4.026;2023-07-31T10:06:18;19.30;99.90
31133;DHT22;17779;50.942;4.026;2023-07-31T10:08:44;19.40;99.90
31133;DHT22;17779;50.942;4.026;2023-07-31T10:11:11;19.30;99.90
31133;DHT22;17779;50.942;4.026;2023-07-31T10:13:39;19.30;99.90
31133;DHT22;17779;50.942;4.026;2023-07-31T10:16:06;19.50;99.90
31133;DHT22;17779;50.942;4.026;2023-07-31T10:18:32;19.90;99.90
31133;DHT22;17779;50.942;4.026;2023-07-31T10:20:59;20.10;99.90
31133;DHT22;17779;50.942;4.026;2023-07-31T10:23:24;19.80;99.90
31133;DHT22;17779;50.942;4.026;2023-07-31T10:25:51;19.80;99.90
31133;DHT22;17779;50.942;4.026;2023-07-31T10:28:18;20.10;99.90
31133;DHT22;17779;50.942;4.026;2023-07-31T10:30:44;20.10;99.90
31133;DHT22;17779;50.942;4.026;2023-07-31T10:33:10;20.20;99.90
31133;DHT22;17779;50.942;4.026;2023-07-31T10:35:36;20.30;99.90
31133;DHT22;17779;50.942;4.026;2023-07-31T10:38:11;20.20;99.90
31133;DHT22;17779;50.942;4.026;2023-07-31T10:40:37;20.10;99.90
31133;DHT22;17779;50.942;4.026;2023-07-31T10:43:03;20.30;99.90
31133;DHT22;17779;50.942;4.026;2023-07-31T10:45:32;20.20;99.90
31133;DHT22;17779;50.942;4.026;2023-07-31T10:48:02;20.20;99.90
31133;DHT22;17779;50.942;4.026;2023-07-31T10:50:29;20.10;99.90
31133;DHT22;17779;50.942;4.026;2023-07-31T10:52:56;20.00;99.90
31133;DHT22;17779;50.942;4.026;2023-07-31T10:55:40;20.10;99.90
31133;DHT22;17779;50.942;4.026;2023-07-31T11:00:34;20.80;99.90
31133;DHT22;17779;50.942;4.026;2023-07-31T11:03:09;20.90;99.90
31133;DHT22;17779;50.942;4.026;2023-07-31T11:05:42;21.10;99.90
31133;DHT22;17779;50.942;4.026;2023-07-31T11:08:15;21.00;99.90
31133;DHT22;17779;50.942;4.026;2023-07-31T11:10:42;20.90;99.90
31133;DHT22;17779;50.942;4.026;2023-07-31T11:13:07;20.80;99.90
31133;DHT22;17779;50.942;4.026;2023-07-31T11:15:33;20.80;99.90
31133;DHT22;17779;50.942;4.026;2023-07-31T11:18:02;20.70;99.90
31133;DHT22;17779;50.942;4.026;2023-07-31T11:20:31;20.70;99.90
31133;DHT22;17779;50.942;4.026;2023-07-31T11:23:06;20.60;99.90
31133;DHT22;17779;50.942;4.026;2023-07-31T11:25:32;20.50;99.90
31133;DHT22;17779;50.942;4.026;2023-07-31T11:28:11;20.40;99.90
31133;DHT22;17779;50.942;4.026;2023-07-31T11:30:37;20.20;99.90
31133;DHT22;17779;50.942;4.026;2023-07-31T11:33:04;20.10;99.90
31133;DHT22;17779;50.942;4.026;2023-07-31T11:35:33;20.10;99.90
31133;DHT22;17779;50.942;4.026;2023-07-31T11:37:59;20.10;99.90
31133;DHT22;17779;50.942;4.026;2023-07-31T11:40:25;20.00;99.90
31133;DHT22;17779;50.942;4.026;2023-07-31T11:42:58;20.10;99.90
31133;DHT22;17779;50.942;4.026;2023-07-31T11:45:24;20.00;99.90
31133;DHT22;17779;50.942;4.026;2023-07-31T11:47:50;20.20;99.90
31133;DHT22;17779;50.942;4.026;2023-07-31T11:50:16;20.20;99.90
31133;DHT22;17779;50.942;4.026;2023-07-31T11:52:42;20.50;99.90
31133;DHT22;17779;50.942;4.026;2023-07-31T11:55:09;20.50;99.90
31133;DHT22;17779;50.942;4.026;2023-07-31T11:57:36;20.50;99.90
31133;DHT22;17779;50.942;4.026;2023-07-31T12:00:02;20.70;99.90
31133;DHT22;17779;50.942;4.026;2023-07-31T12:02:28;20.90;99.90
31133;DHT22;17779;50.942;4.026;2023-07-31T12:04:54;20.90;99.90
31133;DHT22;17779;50.942;4.026;2023-07-31T12:07:20;20.90;99.90
31133;DHT22;17779;50.942;4.026;2023-07-31T12:09:55;20.90;99.90
31133;DHT22;17779;50.942;4.026;2023-07-31T12:12:21;20.90;99.90
31133;DHT22;17779;50.942;4.026;2023-07-31T12:14:47;20.80;99.90
31133;DHT22;17779;50.942;4.026;2023-07-31T12:17:13;21.00;99.90
31133;DHT22;17779;50.942;4.026;2023-07-31T12:19:39;20.80;99.90
31133;DHT22;17779;50.942;4.026;2023-07-31T12:22:12;20.80;99.90
31133;DHT22;17779;50.942;4.026;2023-07-31T12:24:39;20.80;99.90
31133;DHT22;17779;50.942;4.026;2023-07-31T12:27:08;20.80;99.90
31133;DHT22;17779;50.942;4.026;2023-07-31T12:29:34;21.10;99.90
31133;DHT22;17779;50.942;4.026;2023-07-31T12:32:01;21.30;99.90
31133;DHT22;17779;50.942;4.026;2023-07-31T12:34:26;21.30;99.90
31133;DHT22;17779;50.942;4.026;2023-07-31T12:36:53;21.10;99.90
31133;DHT22;17779;50.942;4.026;2023-07-31T12:39:19;20.80;99.90
31133;DHT22;17779;50.942;4.026;2023-07-31T12:41:44;20.70;99.90
31133;DHT22;17779;50.942;4.026;2023-07-31T12:44:10;20.50;99.90
31133;DHT22;17779;50.942;4.026;2023-07-31T12:46:35;20.70;99.90
31133;DHT22;17779;50.942;4.026;2023-07-31T12:49:01;20.60;99.90
31133;DHT22;17779;50.942;4.026;2023-07-31T12:51:27;20.50;99.90
31133;DHT22;17779;50.942;4.026;2023-07-31T12:53:53;20.30;99.90
31133;DHT22;17779;50.942;4.026;2023-07-31T12:56:19;20.40;99.90
31133;DHT22;17779;50.942;4.026;2023-07-31T12:58:44;19.90;99.90
31133;DHT22;17779;50.942;4.026;2023-07-31T13:01:10;19.60;99.90
31133;DHT22;17779;50.942;4.026;2023-07-31T13:03:35;19.50;99.90
31133;DHT22;17779;50.942;4.026;2023-07-31T13:06:01;19.20;99.90
31133;DHT22;17779;50.942;4.026;2023-07-31T13:08:27;19.10;99.90
31133;DHT22;17779;50.942;4.026;2023-07-31T13:10:52;19.00;99.90
31133;DHT22;17779;50.942;4.026;2023-07-31T13:13:18;18.90;99.90
31133;DHT22;17779;50.942;4.026;2023-07-31T13:15:44;18.80;99.90
31133;DHT22;17779;50.942;4.026;2023-07-31T13:18:10;18.80;99.90
31133;DHT22;17779;50.942;4.026;2023-07-31T13:20:36;18.70;99.90
31133;DHT22;17779;50.942;4.026;2023-07-31T13:23:01;18.80;99.90
31133;DHT22;17779;50.942;4.026;2023-07-31T13:25:27;18.70;99.90
31133;DHT22;17779;50.942;4.026;2023-07-31T13:27:53;18.70;99.90
31133;DHT22;17779;50.942;4.026;2023-07-31T13:30:18;18.60;99.90
31133;DHT22;17779;50.942;4.026;2023-07-31T13:32:44;18.60;99.90
31133;DHT22;17779;50.942;4.026;2023-07-31T13:35:09;18.60;99.90
31133;DHT22;17779;50.942;4.026;2023-07-31T13:37:37;18.60;99.90
31133;DHT22;17779;50.942;4.026;2023-07-31T13:40:03;18.60;99.90
31133;DHT22;17779;50.942;4.026;2023-07-31T13:42:30;18.70;99.90
31133;DHT22;17779;50.942;4.026;2023-07-31T13:44:56;18.60;99.90
31133;DHT22;17779;50.942;4.026;2023-07-31T13:47:21;18.60;99.90
31133;DHT22;17779;50.942;4.026;2023-07-31T13:49:47;18.60;99.90
31133;DHT22;17779;50.942;4.026;2023-07-31T13:52:13;18.60;99.90
31133;DHT22;17779;50.942;4.026;2023-07-31T13:54:38;18.50;99.90
31133;DHT22;17779;50.942;4.026;2023-07-31T13:57:04;18.40;99.90
31133;DHT22;17779;50.942;4.026;2023-07-31T13:59:30;18.50;99.90
31133;DHT22;17779;50.942;4.026;2023-07-31T14:01:55;18.50;99.90
31133;DHT22;17779;50.942;4.026;2023-07-31T14:04:21;18.60;99.90
31133;DHT22;17779;50.942;4.026;2023-07-31T14:06:46;18.60;99.90
31133;DHT22;17779;50.942;4.026;2023-07-31T14:09:13;18.50;99.90
31133;DHT22;17779;50.942;4.026;2023-07-31T14:11:39;18.60;99.90
31133;DHT22;17779;50.942;4.026;2023-07-31T14:14:05;18.60;99.90
31133;DHT22;17779;50.942;4.026;2023-07-31T14:16:31;18.60;99.90
31133;DHT22;17779;50.942;4.026;2023-07-31T14:18:56;18.60;99.90
31133;DHT22;17779;50.942;4.026;2023-07-31T14:21:24;18.60;99.90
31133;DHT22;17779;50.942;4.026;2023-07-31T14:23:50;18.60;99.90
31133;DHT22;17779;50.942;4.026;2023-07-31T14:26:16;18.70;99.90
31133;DHT22;17779;50.942;4.026;2023-07-31T14:28:42;18.70;99.90
31133;DHT22;17779;50.942;4.026;2023-07-31T14:31:07;18.70;99.90
31133;DHT22;17779;50.942;4.026;2023-07-31T14:33:33;18.60;99.90
31133;DHT22;17779;50.942;4.026;2023-07-31T14:35:59;18.60;99.90
31133;DHT22;17779;50.942;4.026;2023-07-31T14:38:24;18.50;99.90
31133;DHT22;17779;50.942;4.026;2023-07-31T14:40:51;18.40;99.90
31133;DHT22;17779;50.942;4.026;2023-07-31T14:43:16;18.40;99.90
31133;DHT22;17779;50.942;4.026;2023-07-31T14:45:42;18.40;99.90
31133;DHT22;17779;50.942;4.026;2023-07-31T14:48:07;18.30;99.90
31133;DHT22;17779;50.942;4.026;2023-07-31T14:50:33;18.30;99.90
31133;DHT22;17779;50.942;4.026;2023-07-31T14:52:59;18.40;99.90
31133;DHT22;17779;50.942;4.026;2023-07-31T14:55:25;18.40;99.90
31133;DHT22;17779;50.942;4.026;2023-07-31T14:57:51;18.40;99.90
31133;DHT22;17779;50.942;4.026;2023-07-31T15:00:16;18.40;99.90
31133;DHT22;17779;50.942;4.026;2023-07-31T15:02:42;18.40;99.90
31133;DHT22;17779;50.942;4.026;2023-07-31T15:05:08;18.40;99.90
31133;DHT22;17779;50.942;4.026;2023-07-31T15:07:33;18.50;99.90
31133;DHT22;17779;50.942;4.026;2023-07-31T15:09:59;18.50;99.90
31133;DHT22;17779;50.942;4.026;2023-07-31T15:12:26;18.50;99.90
31133;DHT22;17779;50.942;4.026;2023-07-31T15:14:52;18.40;99.90
31133;DHT22;17779;50.942;4.026;2023-07-31T15:17:18;18.40;99.90
31133;DHT22;17779;50.942;4.026;2023-07-31T15:19:44;18.50;99.90
31133;DHT22;17779;50.942;4.026;2023-07-31T15:22:09;18.40;99.90
31133;DHT22;17779;50.942;4.026;2023-07-31T15:24:35;18.50;99.90
31133;DHT22;17779;50.942;4.026;2023-07-31T15:27:00;18.60;99.90
31133;DHT22;17779;50.942;4.026;2023-07-31T15:29:28;18.60;99.90
31133;DHT22;17779;50.942;4.026;2023-07-31T15:31:54;18.50;99.90